Time,TemperatureF,DewpointF,PressureIn,WindDirection,WindDirectionDegrees,WindSpeedMPH,WindSpeedGustMPH,Humidity,HourlyPrecipIn,Conditions,Clouds,dailyrainin,SolarRadiationWatts/m^2,SoftwareType,DateUTC
2017-03-27 00:04:00,46.5,45.7,29.87,NNW,348,0.0,0.0,97,0.00,,,0.00,0.00,VWS V15.00,2017-03-27 04:04:00,
2017-03-27 00:09:00,46.5,45.7,29.87,NNW,348,0.0,0.0,97,0.00,,,0.00,0.00,VWS V15.00,2017-03-27 04:09:00,
2017-03-27 00:14:00,46.5,45.7,29.87,NNW,348,0.0,0.0,97,0.00,,,0.00,0.00,VWS V15.00,2017-03-27 04:14:00,
2017-03-27 00:19:00,46.5,45.7,29.87,NNW,348,0.0,0.0,97,0.00,,,0.00,0.00,VWS V15.00,2017-03-27 04:19:00,
2017-03-27 00:24:00,46.5,45.7,29.87,NNW,348,0.0,0.0,97,0.00,,,0.00,0.00,VWS V15.00,2017-03-27 04:24:00,
2017-03-27 00:29:00,46.5,45.7,29.87,NNW,348,0.0,0.0,97,0.00,,,0.00,0.00,VWS V15.00,2017-03-27 04:29:00,
2017-03-27 00:34:00,46.5,45.7,29.87,NNW,348,0.0,0.0,97,0.00,,,0.00,0.00,VWS V15.00,2017-03-27 04:34:00,
2017-03-27 00:39:00,46.4,45.6,29.87,NNW,348,0.0,0.0,97,0.00,,,0.00,0.00,VWS V15.00,2017-03-27 04:39:00,
2017-03-27 00:44:00,46.5,45.7,29.87,NNW,348,0.0,0.0,97,0.00,,,0.00,0.00,VWS V15.00,2017-03-27 04:44:00,
2017-03-27 00:49:00,46.5,45.7,29.87,NNW,348,0.0,0.0,97,0.00,,,0.00,0.00,VWS V15.00,2017-03-27 04:49:00,
2017-03-27 00:54:00,46.5,45.7,29.87,NNW,348,0.0,0.0,97,0.00,,,0.00,0.00,VWS V15.00,2017-03-27 04:54:00,
2017-03-27 00:59:00,46.6,45.8,29.87,NNW,348,0.0,0.0,97,0.00,,,0.00,0.00,VWS V15.00,2017-03-27 04:59:00,
2017-03-27 01:04:00,46.7,46.2,29.87,NNW,348,0.0,0.0,98,0.00,,,0.00,0.00,VWS V15.00,2017-03-27 05:04:00,
2017-03-27 01:09:00,46.8,46.3,29.87,NNW,348,0.0,0.0,98,0.00,,,0.00,0.00,VWS V15.00,2017-03-27 05:09:00,
2017-03-27 01:14:00,46.9,46.4,29.87,NNW,348,0.0,0.0,98,0.00,,,0.00,0.00,VWS V15.00,2017-03-27 05:14:00,
2017-03-27 01:19:00,47.0,46.5,29.87,NNW,348,0.0,0.0,98,0.00,,,0.00,0.00,VWS V15.00,2017-03-27 05:19:00,
2017-03-27 01:24:00,47.1,46.6,29.87,NNW,348,0.0,0.0,98,0.00,,,0.00,0.00,VWS V15.00,2017-03-27 05:24:00,
2017-03-27 01:29:00,47.2,46.7,29.87,NNW,348,0.0,0.0,98,0.00,,,0.00,0.00,VWS V15.00,2017-03-27 05:29:00,
2017-03-27 01:34:00,47.4,46.9,29.87,NNW,348,0.0,0.0,98,0.00,,,0.00,0.00,VWS V15.00,2017-03-27 05:34:00,
2017-03-27 01:39:00,47.5,47.0,29.87,NNW,348,0.0,0.0,98,0.00,,,0.00,0.00,VWS V15.00,2017-03-27 05:39:00,
2017-03-27 01:44:00,47.6,47.1,29.86,NNW,348,0.0,0.0,98,0.00,,,0.00,0.00,VWS V15.00,2017-03-27 05:44:00,
2017-03-27 01:49:00,47.7,47.2,29.86,NNW,348,0.0,1.0,98,0.00,,,0.00,0.00,VWS V15.00,2017-03-27 05:49:00,
2017-03-27 01:54:00,47.8,47.3,29.86,NNW,348,0.0,1.0,98,0.00,,,0.00,0.00,VWS V15.00,2017-03-27 05:54:00,
2017-03-27 01:59:00,47.8,47.3,29.86,NNW,348,0.0,1.0,98,0.00,,,0.00,0.00,VWS V15.00,2017-03-27 05:59:00,
2017-03-27 02:04:00,47.9,47.4,29.86,NNW,348,0.0,1.0,98,0.00,,,0.00,0.00,VWS V15.00,2017-03-27 06:04:00,
2017-03-27 02:09:00,47.9,47.4,29.85,NNW,348,0.0,1.0,98,0.00,,,0.00,0.00,VWS V15.00,2017-03-27 06:09:00,
2017-03-27 02:14:00,47.9,47.4,29.86,NNW,348,0.0,1.0,98,0.00,,,0.00,0.00,VWS V15.00,2017-03-27 06:14:00,
2017-03-27 02:19:00,48.0,47.5,29.85,NNW,348,0.0,1.0,98,0.00,,,0.00,0.00,VWS V15.00,2017-03-27 06:19:00,
2017-03-27 02:24:00,48.0,47.5,29.85,NNW,348,0.0,1.0,98,0.00,,,0.00,0.00,VWS V15.00,2017-03-27 06:24:00,
2017-03-27 02:29:00,48.1,47.6,29.85,NNW,348,0.0,1.0,98,0.00,,,0.00,0.00,VWS V15.00,2017-03-27 06:29:00,
2017-03-27 02:34:00,48.2,47.7,29.85,North,354,0.0,2.0,98,0.00,,,0.00,0.00,VWS V15.00,2017-03-27 06:34:00,
2017-03-27 02:39:00,48.2,47.7,29.85,North,354,0.0,2.0,98,0.00,,,0.00,0.00,VWS V15.00,2017-03-27 06:39:00,
2017-03-27 02:44:00,48.2,47.7,29.85,North,354,0.0,2.0,98,0.00,,,0.00,0.00,VWS V15.00,2017-03-27 06:44:00,
2017-03-27 02:49:00,48.3,47.8,29.85,North,354,0.0,2.0,98,0.00,,,0.00,0.00,VWS V15.00,2017-03-27 06:49:00,
2017-03-27 02:54:00,48.3,47.8,29.85,North,354,0.0,2.0,98,0.00,,,0.00,0.00,VWS V15.00,2017-03-27 06:54:00,
2017-03-27 02:59:00,48.4,47.9,29.85,North,354,0.0,2.0,98,0.00,,,0.00,0.00,VWS V15.00,2017-03-27 06:59:00,
2017-03-27 03:04:00,48.4,47.9,29.85,North,354,0.0,0.0,98,0.00,,,0.00,0.00,VWS V15.00,2017-03-27 07:04:00,
2017-03-27 03:09:00,48.4,47.9,29.85,North,354,0.0,0.0,98,0.00,,,0.00,0.00,VWS V15.00,2017-03-27 07:09:00,
2017-03-27 03:14:00,48.4,47.9,29.84,North,354,0.0,0.0,98,0.00,,,0.00,0.00,VWS V15.00,2017-03-27 07:14:00,
2017-03-27 03:19:00,48.4,47.9,29.84,North,354,0.0,0.0,98,0.00,,,0.00,0.00,VWS V15.00,2017-03-27 07:19:00,
2017-03-27 03:24:00,48.5,48.0,29.84,North,354,0.0,0.0,98,0.00,,,0.00,0.00,VWS V15.00,2017-03-27 07:24:00,
2017-03-27 03:29:00,48.5,48.0,29.84,North,354,0.0,0.0,98,0.00,,,0.00,0.00,VWS V15.00,2017-03-27 07:29:00,
2017-03-27 03:34:00,48.6,48.1,29.84,North,354,0.0,0.0,98,0.00,,,0.00,0.00,VWS V15.00,2017-03-27 07:34:00,
2017-03-27 03:39:00,48.6,48.1,29.84,North,354,0.0,0.0,98,0.00,,,0.00,0.00,VWS V15.00,2017-03-27 07:39:00,
2017-03-27 03:40:00,48.6,48.1,29.84,North,354,0.0,0.0,98,0.00,,,0.00,0.00,VWS V15.00,2017-03-27 07:40:00,
2017-03-27 03:45:00,48.6,48.1,29.84,North,354,0.0,0.0,98,0.00,,,0.00,0.00,VWS V15.00,2017-03-27 07:45:00,
2017-03-27 03:50:00,48.6,48.1,29.84,North,354,0.0,0.0,98,0.00,,,0.00,0.00,VWS V15.00,2017-03-27 07:50:00,
2017-03-27 03:55:00,48.5,48.0,29.84,North,354,0.0,0.0,98,0.00,,,0.00,0.00,VWS V15.00,2017-03-27 07:55:00,
2017-03-27 04:00:00,48.5,48.0,29.83,North,354,0.0,0.0,98,0.00,,,0.00,0.00,VWS V15.00,2017-03-27 08:00:00,
2017-03-27 04:05:00,48.5,48.0,29.83,North,354,0.0,0.0,98,0.00,,,0.00,0.00,VWS V15.00,2017-03-27 08:05:00,
2017-03-27 04:10:00,48.5,48.0,29.82,North,354,0.0,0.0,98,0.00,,,0.00,0.00,VWS V15.00,2017-03-27 08:10:00,
2017-03-27 04:15:00,48.6,48.1,29.82,North,354,0.0,0.0,98,0.00,,,0.00,0.00,VWS V15.00,2017-03-27 08:15:00,
2017-03-27 04:20:00,48.7,48.2,29.83,North,354,0.0,0.0,98,0.00,,,0.00,0.00,VWS V15.00,2017-03-27 08:20:00,
2017-03-27 04:25:00,48.9,48.4,29.83,North,354,0.0,0.0,98,0.00,,,0.00,0.00,VWS V15.00,2017-03-27 08:25:00,
2017-03-27 04:30:00,49.0,48.5,29.83,North,354,0.0,0.0,98,0.00,,,0.00,0.00,VWS V15.00,2017-03-27 08:30:00,
2017-03-27 04:35:00,49.2,48.7,29.83,North,354,0.0,0.0,98,0.00,,,0.00,0.00,VWS V15.00,2017-03-27 08:35:00,
2017-03-27 04:40:00,49.3,48.8,29.84,North,354,0.0,0.0,98,0.00,,,0.00,0.00,VWS V15.00,2017-03-27 08:40:00,
2017-03-27 04:45:00,49.4,48.9,29.84,North,354,0.0,0.0,98,0.00,,,0.00,0.00,VWS V15.00,2017-03-27 08:45:00,
2017-03-27 04:50:00,49.5,49.0,29.84,North,352,0.0,0.0,98,0.00,,,0.00,0.00,VWS V15.00,2017-03-27 08:50:00,
2017-03-27 04:55:00,49.5,49.0,29.84,East,80,0.0,2.0,98,0.00,,,0.00,0.00,VWS V15.00,2017-03-27 08:55:00,
2017-03-27 05:00:00,49.6,49.1,29.84,East,80,0.0,2.0,98,0.00,,,0.00,0.00,VWS V15.00,2017-03-27 09:00:00,